sensor_id;sensor_type;location;lat;lon;timestamp;temperature;humidity
36790;DHT22;22740;52.182;8.780;2022-08-30T00:03:08;16.10;99.90
36790;DHT22;22740;52.182;8.780;2022-08-30T00:09:11;16.20;99.90
36790;DHT22;22740;52.182;8.780;2022-08-30T00:15:14;16.40;99.90
36790;DHT22;22740;52.182;8.780;2022-08-30T00:21:16;16.60;99.90
36790;DHT22;22740;52.182;8.780;2022-08-30T00:27:18;16.60;99.90
36790;DHT22;22740;52.182;8.780;2022-08-30T00:33:19;16.70;99.90
36790;DHT22;22740;52.182;8.780;2022-08-30T00:39:22;16.50;99.90
36790;DHT22;22740;52.182;8.780;2022-08-30T00:45:29;16.40;99.90
36790;DHT22;22740;52.182;8.780;2022-08-30T00:51:31;16.30;99.90
36790;DHT22;22740;52.182;8.780;2022-08-30T00:57:34;16.30;99.90
36790;DHT22;22740;52.182;8.780;2022-08-30T01:03:37;16.30;99.90
36790;DHT22;22740;52.182;8.780;2022-08-30T01:09:39;16.30;99.90
36790;DHT22;22740;52.182;8.780;2022-08-30T01:15:43;16.30;99.90
36790;DHT22;22740;52.182;8.780;2022-08-30T01:21:49;16.10;99.90
36790;DHT22;22740;52.182;8.780;2022-08-30T01:27:57;16.10;99.90
36790;DHT22;22740;52.182;8.780;2022-08-30T01:34:00;16.20;99.90
36790;DHT22;22740;52.182;8.780;2022-08-30T01:40:04;16.20;99.90
36790;DHT22;22740;52.182;8.780;2022-08-30T01:46:07;16.10;99.90
36790;DHT22;22740;52.182;8.780;2022-08-30T01:52:11;16.10;99.90
36790;DHT22;22740;52.182;8.780;2022-08-30T01:58:13;16.10;99.90
36790;DHT22;22740;52.182;8.780;2022-08-30T02:04:15;16.00;99.90
36790;DHT22;22740;52.182;8.780;2022-08-30T02:10:17;15.90;99.90
36790;DHT22;22740;52.182;8.780;2022-08-30T02:16:20;15.70;99.90
36790;DHT22;22740;52.182;8.780;2022-08-30T02:22:23;15.70;99.90
36790;DHT22;22740;52.182;8.780;2022-08-30T02:28:25;15.50;99.90
36790;DHT22;22740;52.182;8.780;2022-08-30T02:34:27;15.60;99.90
36790;DHT22;22740;52.182;8.780;2022-08-30T02:40:29;15.60;99.90
36790;DHT22;22740;52.182;8.780;2022-08-30T02:46:31;15.60;99.90
36790;DHT22;22740;52.182;8.780;2022-08-30T02:52:36;15.50;99.90
36790;DHT22;22740;52.182;8.780;2022-08-30T02:58:38;15.50;99.90
36790;DHT22;22740;52.182;8.780;2022-08-30T03:04:42;15.40;99.90
36790;DHT22;22740;52.182;8.780;2022-08-30T03:10:47;15.40;99.90
36790;DHT22;22740;52.182;8.780;2022-08-30T03:16:49;15.40;99.90
36790;DHT22;22740;52.182;8.780;2022-08-30T03:22:51;15.40;99.90
36790;DHT22;22740;52.182;8.780;2022-08-30T03:28:53;15.40;99.90
36790;DHT22;22740;52.182;8.780;2022-08-30T03:34:54;15.20;99.90
36790;DHT22;22740;52.182;8.780;2022-08-30T03:40:56;15.30;99.90
36790;DHT22;22740;52.182;8.780;2022-08-30T03:46:58;15.30;99.90
36790;DHT22;22740;52.182;8.780;2022-08-30T03:53:00;15.20;99.90
36790;DHT22;22740;52.182;8.780;2022-08-30T03:59:02;15.10;99.90
36790;DHT22;22740;52.182;8.780;2022-08-30T04:05:05;15.10;99.90
36790;DHT22;22740;52.182;8.780;2022-08-30T04:11:07;15.00;99.90
36790;DHT22;22740;52.182;8.780;2022-08-30T04:17:08;15.00;99.90
36790;DHT22;22740;52.182;8.780;2022-08-30T04:23:10;14.90;99.90
36790;DHT22;22740;52.182;8.780;2022-08-30T04:29:13;14.70;99.90
36790;DHT22;22740;52.182;8.780;2022-08-30T04:35:17;14.70;99.90
36790;DHT22;22740;52.182;8.780;2022-08-30T04:41:19;14.70;99.90
36790;DHT22;22740;52.182;8.780;2022-08-30T04:47:25;14.50;99.90
36790;DHT22;22740;52.182;8.780;2022-08-30T04:53:27;14.50;99.90
36790;DHT22;22740;52.182;8.780;2022-08-30T04:59:29;14.60;99.90
36790;DHT22;22740;52.182;8.780;2022-08-30T05:05:30;14.60;99.90
36790;DHT22;22740;52.182;8.780;2022-08-30T05:11:42;14.60;99.90
36790;DHT22;22740;52.182;8.780;2022-08-30T05:17:44;14.60;99.90
36790;DHT22;22740;52.182;8.780;2022-08-30T05:23:47;14.60;99.90
36790;DHT22;22740;52.182;8.780;2022-08-30T05:29:50;14.60;99.90
36790;DHT22;22740;52.182;8.780;2022-08-30T05:35:51;14.50;99.90
36790;DHT22;22740;52.182;8.780;2022-08-30T05:41:57;14.50;99.90
36790;DHT22;22740;52.182;8.780;2022-08-30T05:47:59;14.50;99.90
36790;DHT22;22740;52.182;8.780;2022-08-30T05:54:02;14.60;99.90
36790;DHT22;22740;52.182;8.780;2022-08-30T06:00:13;14.60;99.90
36790;DHT22;22740;52.182;8.780;2022-08-30T06:06:15;14.70;99.90
36790;DHT22;22740;52.182;8.780;2022-08-30T06:12:17;14.70;99.90
36790;DHT22;22740;52.182;8.780;2022-08-30T06:18:18;14.80;99.90
36790;DHT22;22740;52.182;8.780;2022-08-30T06:24:29;14.90;99.90
36790;DHT22;22740;52.182;8.780;2022-08-30T06:30:50;14.80;99.90
36790;DHT22;22740;52.182;8.780;2022-08-30T06:36:52;14.80;99.90
36790;DHT22;22740;52.182;8.780;2022-08-30T06:42:55;15.00;99.90
36790;DHT22;22740;52.182;8.780;2022-08-30T06:48:57;14.90;99.90
36790;DHT22;22740;52.182;8.780;2022-08-30T06:54:59;15.00;99.90
36790;DHT22;22740;52.182;8.780;2022-08-30T07:01:01;15.10;99.90
36790;DHT22;22740;52.182;8.780;2022-08-30T07:07:03;15.40;99.90
36790;DHT22;22740;52.182;8.780;2022-08-30T07:13:06;15.50;99.90
36790;DHT22;22740;52.182;8.780;2022-08-30T07:19:08;15.60;99.90
36790;DHT22;22740;52.182;8.780;2022-08-30T07:25:21;15.60;99.90
36790;DHT22;22740;52.182;8.780;2022-08-30T07:31:23;15.60;99.90
36790;DHT22;22740;52.182;8.780;2022-08-30T07:37:25;15.80;99.90
36790;DHT22;22740;52.182;8.780;2022-08-30T07:43:30;15.90;99.90
36790;DHT22;22740;52.182;8.780;2022-08-30T07:49:32;16.30;99.90
36790;DHT22;22740;52.182;8.780;2022-08-30T07:55:34;16.40;99.90
36790;DHT22;22740;52.182;8.780;2022-08-30T08:01:35;16.30;99.90
36790;DHT22;22740;52.182;8.780;2022-08-30T08:07:37;16.50;99.90
36790;DHT22;22740;52.182;8.780;2022-08-30T08:13:40;16.50;99.90
36790;DHT22;22740;52.182;8.780;2022-08-30T08:19:54;16.80;99.90
36790;DHT22;22740;52.182;8.780;2022-08-30T08:25:56;16.90;99.90
36790;DHT22;22740;52.182;8.780;2022-08-30T08:31:58;16.80;99.90
36790;DHT22;22740;52.182;8.780;2022-08-30T08:38:00;16.90;99.90
36790;DHT22;22740;52.182;8.780;2022-08-30T08:50:37;16.90;99.90
36790;DHT22;22740;52.182;8.780;2022-08-30T08:57:03;17.10;99.90
36790;DHT22;22740;52.182;8.780;2022-08-30T09:03:05;17.30;99.90
36790;DHT22;22740;52.182;8.780;2022-08-30T09:09:11;17.50;99.90
36790;DHT22;22740;52.182;8.780;2022-08-30T09:15:23;17.60;99.90
36790;DHT22;22740;52.182;8.780;2022-08-30T09:21:26;17.70;99.90
36790;DHT22;22740;52.182;8.780;2022-08-30T09:27:35;17.90;99.90
36790;DHT22;22740;52.182;8.780;2022-08-30T09:33:37;18.10;99.90
36790;DHT22;22740;52.182;8.780;2022-08-30T09:39:41;18.20;99.90
36790;DHT22;22740;52.182;8.780;2022-08-30T09:46:05;18.40;99.90
36790;DHT22;22740;52.182;8.780;2022-08-30T09:52:31;18.60;99.90
36790;DHT22;22740;52.182;8.780;2022-08-30T09:58:49;18.90;99.90
36790;DHT22;22740;52.182;8.780;2022-08-30T10:05:02;18.90;99.90
36790;DHT22;22740;52.182;8.780;2022-08-30T10:23:32;19.40;99.90
36790;DHT22;22740;52.182;8.780;2022-08-30T10:30:02;19.50;99.90
36790;DHT22;22740;52.182;8.780;2022-08-30T10:36:08;19.70;99.90
36790;DHT22;22740;52.182;8.780;2022-08-30T10:42:21;19.90;99.90
36790;DHT22;22740;52.182;8.780;2022-08-30T10:48:30;20.00;99.90
36790;DHT22;22740;52.182;8.780;2022-08-30T10:54:39;20.00;99.90
36790;DHT22;22740;52.182;8.780;2022-08-30T11:13:35;20.80;99.90
36790;DHT22;22740;52.182;8.780;2022-08-30T11:19:40;21.00;99.90
36790;DHT22;22740;52.182;8.780;2022-08-30T11:25:58;20.80;99.90
36790;DHT22;22740;52.182;8.780;2022-08-30T11:38:58;20.70;99.90
36790;DHT22;22740;52.182;8.780;2022-08-30T11:44:40;21.20;99.90
36790;DHT22;22740;52.182;8.780;2022-08-30T11:51:00;21.20;99.90
36790;DHT22;22740;52.182;8.780;2022-08-30T12:03:31;21.60;99.90
36790;DHT22;22740;52.182;8.780;2022-08-30T12:15:56;21.80;99.90
36790;DHT22;22740;52.182;8.780;2022-08-30T12:22:03;21.80;99.90
36790;DHT22;22740;52.182;8.780;2022-08-30T12:28:14;21.80;99.90
36790;DHT22;22740;52.182;8.780;2022-08-30T12:40:27;22.10;99.90
36790;DHT22;22740;52.182;8.780;2022-08-30T12:46:32;22.30;99.90
36790;DHT22;22740;52.182;8.780;2022-08-30T12:52:45;22.30;99.90
36790;DHT22;22740;52.182;8.780;2022-08-30T12:58:51;22.30;99.90
36790;DHT22;22740;52.182;8.780;2022-08-30T13:04:55;22.70;99.90
36790;DHT22;22740;52.182;8.780;2022-08-30T13:10:58;22.70;99.90
36790;DHT22;22740;52.182;8.780;2022-08-30T13:23:23;22.50;99.90
36790;DHT22;22740;52.182;8.780;2022-08-30T13:29:36;22.50;99.90
36790;DHT22;22740;52.182;8.780;2022-08-30T13:35:38;22.50;99.90
36790;DHT22;22740;52.182;8.780;2022-08-30T13:41:41;22.80;99.90
36790;DHT22;22740;52.182;8.780;2022-08-30T13:47:44;22.90;99.90
36790;DHT22;22740;52.182;8.780;2022-08-30T13:53:47;22.70;99.90
36790;DHT22;22740;52.182;8.780;2022-08-30T13:59:54;23.00;99.90
36790;DHT22;22740;52.182;8.780;2022-08-30T14:05:58;22.90;99.90
36790;DHT22;22740;52.182;8.780;2022-08-30T14:12:20;22.80;99.90
36790;DHT22;22740;52.182;8.780;2022-08-30T14:18:41;22.60;99.90
36790;DHT22;22740;52.182;8.780;2022-08-30T14:24:43;22.50;99.90
36790;DHT22;22740;52.182;8.780;2022-08-30T14:30:46;22.70;99.90
36790;DHT22;22740;52.182;8.780;2022-08-30T14:36:51;22.90;99.90
36790;DHT22;22740;52.182;8.780;2022-08-30T14:42:53;22.60;99.90
36790;DHT22;22740;52.182;8.780;2022-08-30T14:48:54;22.60;99.90
36790;DHT22;22740;52.182;8.780;2022-08-30T14:54:58;22.90;99.90
36790;DHT22;22740;52.182;8.780;2022-08-30T15:01:11;23.30;99.90
36790;DHT22;22740;52.182;8.780;2022-08-30T15:07:14;23.30;99.90
36790;DHT22;22740;52.182;8.780;2022-08-30T15:13:17;23.60;99.90
36790;DHT22;22740;52.182;8.780;2022-08-30T15:19:20;23.60;99.90
36790;DHT22;22740;52.182;8.780;2022-08-30T15:25:22;23.50;99.90
36790;DHT22;22740;52.182;8.780;2022-08-30T15:31:26;23.40;99.90
36790;DHT22;22740;52.182;8.780;2022-08-30T15:37:29;23.00;99.90
36790;DHT22;22740;52.182;8.780;2022-08-30T15:43:31;23.10;99.90
36790;DHT22;22740;52.182;8.780;2022-08-30T15:49:35;23.30;99.90
36790;DHT22;22740;52.182;8.780;2022-08-30T15:55:37;23.10;99.90
36790;DHT22;22740;52.182;8.780;2022-08-30T16:01:39;23.00;99.90
36790;DHT22;22740;52.182;8.780;2022-08-30T16:07:40;23.10;99.90
36790;DHT22;22740;52.182;8.780;2022-08-30T16:13:43;23.20;99.90
36790;DHT22;22740;52.182;8.780;2022-08-30T16:19:51;22.90;99.90
36790;DHT22;22740;52.182;8.780;2022-08-30T16:25:59;22.60;99.90
36790;DHT22;22740;52.182;8.780;2022-08-30T16:32:05;22.50;99.90
36790;DHT22;22740;52.182;8.780;2022-08-30T16:38:07;22.50;99.90
36790;DHT22;22740;52.182;8.780;2022-08-30T16:44:09;22.70;99.90
36790;DHT22;22740;52.182;8.780;2022-08-30T16:50:13;22.50;99.90
36790;DHT22;22740;52.182;8.780;2022-08-30T16:56:21;22.30;99.90
36790;DHT22;22740;52.182;8.780;2022-08-30T17:02:27;22.00;99.90
36790;DHT22;22740;52.182;8.780;2022-08-30T17:08:29;21.90;99.90
36790;DHT22;22740;52.182;8.780;2022-08-30T17:14:31;21.70;99.90
36790;DHT22;22740;52.182;8.780;2022-08-30T17:20:33;21.50;99.90
36790;DHT22;22740;52.182;8.780;2022-08-30T17:26:36;21.30;99.90
36790;DHT22;22740;52.182;8.780;2022-08-30T17:32:40;21.20;99.90
36790;DHT22;22740;52.182;8.780;2022-08-30T17:38:42;21.10;99.90
36790;DHT22;22740;52.182;8.780;2022-08-30T17:44:45;21.10;99.90
36790;DHT22;22740;52.182;8.780;2022-08-30T17:50:54;20.80;99.90
36790;DHT22;22740;52.182;8.780;2022-08-30T17:56:57;20.60;99.90
36790;DHT22;22740;52.182;8.780;2022-08-30T18:03:00;20.50;99.90
36790;DHT22;22740;52.182;8.780;2022-08-30T18:09:04;20.20;99.90
36790;DHT22;22740;52.182;8.780;2022-08-30T18:15:07;20.10;99.90
36790;DHT22;22740;52.182;8.780;2022-08-30T18:21:17;19.90;99.90
36790;DHT22;22740;52.182;8.780;2022-08-30T18:27:22;19.80;99.90
36790;DHT22;22740;52.182;8.780;2022-08-30T18:33:25;19.70;99.90
36790;DHT22;22740;52.182;8.780;2022-08-30T18:39:29;19.60;99.90
36790;DHT22;22740;52.182;8.780;2022-08-30T18:45:40;19.50;99.90
36790;DHT22;22740;52.182;8.780;2022-08-30T18:51:42;19.40;99.90
36790;DHT22;22740;52.182;8.780;2022-08-30T18:57:44;19.40;99.90
36790;DHT22;22740;52.182;8.780;2022-08-30T19:03:46;19.30;99.90
36790;DHT22;22740;52.182;8.780;2022-08-30T19:09:48;19.20;99.90
36790;DHT22;22740;52.182;8.780;2022-08-30T19:15:51;19.20;99.90
36790;DHT22;22740;52.182;8.780;2022-08-30T19:21:54;19.10;99.90
36790;DHT22;22740;52.182;8.780;2022-08-30T19:27:56;19.10;99.90
36790;DHT22;22740;52.182;8.780;2022-08-30T19:33:58;19.10;99.90
36790;DHT22;22740;52.182;8.780;2022-08-30T19:40:03;19.10;99.90
36790;DHT22;22740;52.182;8.780;2022-08-30T19:46:06;18.90;99.90
36790;DHT22;22740;52.182;8.780;2022-08-30T19:52:08;18.90;99.90
36790;DHT22;22740;52.182;8.780;2022-08-30T19:58:10;18.80;99.90
36790;DHT22;22740;52.182;8.780;2022-08-30T20:04:12;18.70;99.90
36790;DHT22;22740;52.182;8.780;2022-08-30T20:10:15;18.60;99.90
36790;DHT22;22740;52.182;8.780;2022-08-30T20:16:18;18.60;99.90
36790;DHT22;22740;52.182;8.780;2022-08-30T20:22:20;18.60;99.90
36790;DHT22;22740;52.182;8.780;2022-08-30T20:28:23;18.60;99.90
36790;DHT22;22740;52.182;8.780;2022-08-30T20:34:25;18.60;99.90
36790;DHT22;22740;52.182;8.780;2022-08-30T20:40:28;18.50;99.90
36790;DHT22;22740;52.182;8.780;2022-08-30T20:46:30;18.30;99.90
36790;DHT22;22740;52.182;8.780;2022-08-30T20:52:34;18.20;99.90
36790;DHT22;22740;52.182;8.780;2022-08-30T20:58:36;18.10;99.90
36790;DHT22;22740;52.182;8.780;2022-08-30T21:04:38;18.10;99.90
36790;DHT22;22740;52.182;8.780;2022-08-30T21:10:40;18.00;99.90
36790;DHT22;22740;52.182;8.780;2022-08-30T21:16:42;17.90;99.90
36790;DHT22;22740;52.182;8.780;2022-08-30T21:22:44;17.70;99.90
36790;DHT22;22740;52.182;8.780;2022-08-30T21:28:47;17.70;99.90
36790;DHT22;22740;52.182;8.780;2022-08-30T21:34:49;17.70;99.90
36790;DHT22;22740;52.182;8.780;2022-08-30T21:41:10;17.60;99.90
36790;DHT22;22740;52.182;8.780;2022-08-30T21:47:13;17.60;99.90
36790;DHT22;22740;52.182;8.780;2022-08-30T21:53:23;17.50;99.90
36790;DHT22;22740;52.182;8.780;2022-08-30T21:59:26;17.50;99.90
36790;DHT22;22740;52.182;8.780;2022-08-30T22:05:29;17.30;99.90
36790;DHT22;22740;52.182;8.780;2022-08-30T22:11:32;17.20;99.90
36790;DHT22;22740;52.182;8.780;2022-08-30T22:17:35;17.10;99.90
36790;DHT22;22740;52.182;8.780;2022-08-30T22:23:39;17.00;99.90
36790;DHT22;22740;52.182;8.780;2022-08-30T22:29:41;17.00;99.90
36790;DHT22;22740;52.182;8.780;2022-08-30T22:35:44;16.90;99.90
36790;DHT22;22740;52.182;8.780;2022-08-30T22:41:46;16.90;99.90
36790;DHT22;22740;52.182;8.780;2022-08-30T22:47:47;16.80;99.90
36790;DHT22;22740;52.182;8.780;2022-08-30T22:53:49;16.80;99.90
36790;DHT22;22740;52.182;8.780;2022-08-30T22:59:51;16.90;99.90
36790;DHT22;22740;52.182;8.780;2022-08-30T23:05:53;16.80;99.90
36790;DHT22;22740;52.182;8.780;2022-08-30T23:11:56;16.80;99.90
36790;DHT22;22740;52.182;8.780;2022-08-30T23:17:57;16.70;99.90
36790;DHT22;22740;52.182;8.780;2022-08-30T23:23:59;16.60;99.90
36790;DHT22;22740;52.182;8.780;2022-08-30T23:30:20;16.50;99.90
36790;DHT22;22740;52.182;8.780;2022-08-30T23:36:41;16.40;99.90
36790;DHT22;22740;52.182;8.780;2022-08-30T23:43:02;16.40;99.90
36790;DHT22;22740;52.182;8.780;2022-08-30T23:49:22;16.30;99.90
36790;DHT22;22740;52.182;8.780;2022-08-30T23:55:43;16.20;99.90
